Time;durP1;ratioP1;P1;durP2;ratioP2;P2;SDS_P1;SDS_P2;PMS_P1;PMS_P2;Temp;Humidity;BMP_temperature;BMP_pressure;BME280_temperature;BME280_humidity;BME280_pressure;Samples;Min_cycle;Max_cycle;Signal;HPM_P1;HPM_P2
2022/01/28 00:00:50;;;;;;;23.52;2.83;;;5.70;99.90;;;;;;5091592;28;20424;-77
2022/01/28 00:05:14;;;;;;;25.15;2.95;;;5.80;99.90;;;;;;5085647;28;20024;-77
2022/01/28 00:07:40;;;;;;;18.08;2.58;;;5.70;99.90;;;;;;5056831;28;20043;-77
2022/01/28 00:10:05;;;;;;;20.67;3.03;;;5.70;99.90;;;;;;5088654;28;20032;-77
2022/01/28 00:12:32;;;;;;;16.90;2.95;;;5.70;99.90;;;;;;5085086;28;20040;-76
2022/01/28 00:15:17;;;;;;;21.92;2.50;;;5.60;99.90;;;;;;5080393;28;20048;-77
2022/01/28 00:36:57;;;;;;;18.33;2.63;;;5.50;99.90;;;;;;5074429;28;20043;-77
2022/01/28 00:39:23;;;;;;;21.52;3.20;;;5.50;99.90;;;;;;5037994;28;20525;-77
2022/01/28 00:41:49;;;;;;;27.83;2.65;;;5.40;99.90;;;;;;5076376;28;20028;-77
2022/01/28 00:44:14;;;;;;;24.88;3.08;;;5.40;99.90;;;;;;5072576;28;20032;-76
2022/01/28 00:46:40;;;;;;;18.98;2.47;;;5.40;99.90;;;;;;5081869;28;20047;-76
2022/01/28 00:49:06;;;;;;;21.08;2.55;;;5.40;99.90;;;;;;5090868;28;20475;-76
2022/01/28 00:51:31;;;;;;;27.13;2.78;;;5.40;99.90;;;;;;5074966;28;20086;-76
2022/01/28 00:53:57;;;;;;;23.38;3.38;;;5.40;99.90;;;;;;5070635;28;20039;-76
2022/01/28 00:56:22;;;;;;;19.63;2.25;;;5.40;99.90;;;;;;5084682;28;20086;-77
2022/01/28 00:58:48;;;;;;;16.55;2.60;;;5.40;99.90;;;;;;5069077;28;20070;-77
2022/01/28 01:01:14;;;;;;;22.58;2.97;;;5.30;99.90;;;;;;5077803;28;20027;-77
2022/01/28 01:03:40;;;;;;;25.45;3.00;;;5.30;99.90;;;;;;5087378;28;20118;-77
2022/01/28 01:06:06;;;;;;;17.25;2.15;;;5.30;99.90;;;;;;5079206;28;20025;-77
2022/01/28 01:08:31;;;;;;;16.77;2.55;;;5.30;99.90;;;;;;5079832;28;20113;-77
2022/01/28 01:10:57;;;;;;;21.23;2.53;;;5.30;99.90;;;;;;5053280;28;20040;-77
2022/01/28 01:13:22;;;;;;;26.13;2.70;;;5.30;99.90;;;;;;5074072;28;20020;-77
2022/01/28 01:15:53;;;;;;;19.52;3.00;;;5.20;99.90;;;;;;5077254;28;20044;-76
2022/01/28 01:18:24;;;;;;;13.63;1.92;;;5.20;99.90;;;;;;5069464;28;20028;-76
2022/01/28 01:21:04;;;;;;;18.10;2.55;;;5.10;99.90;;;;;;5088549;28;20035;-77
2022/01/28 01:23:36;;;;;;;19.70;2.10;;;5.10;99.90;;;;;;5071645;28;20452;-77
2022/01/28 01:28:33;;;;;;;18.92;2.72;;;5.10;99.90;;;;;;5071349;28;20366;-76
2022/01/28 01:31:01;;;;;;;16.48;2.90;;;5.00;99.90;;;;;;5086254;28;20032;-77
2022/01/28 01:33:29;;;;;;;15.48;2.58;;;5.00;99.90;;;;;;5040597;28;20097;-76
2022/01/28 01:35:57;;;;;;;16.90;1.92;;;5.00;99.90;;;;;;5070040;28;20060;-77
2022/01/28 01:38:26;;;;;;;19.08;2.47;;;5.00;99.90;;;;;;5065556;28;20448;-76
2022/01/28 01:40:56;;;;;;;22.27;2.90;;;4.90;99.90;;;;;;5065363;28;20365;-77
2022/01/28 01:46:48;;;;;;;21.30;2.53;;;4.90;99.90;;;;;;5086925;28;20112;-76
2022/01/28 01:54:09;;;;;;;18.10;2.72;;;4.90;99.90;;;;;;5082591;28;20034;-77
2022/01/28 01:56:37;;;;;;;21.30;2.60;;;5.00;99.90;;;;;;5079814;28;20037;-76
2022/01/28 01:59:03;;;;;;;19.85;2.50;;;4.90;99.90;;;;;;5075309;28;20035;-77
2022/01/28 02:01:29;;;;;;;22.33;2.47;;;5.00;99.90;;;;;;5072388;28;20032;-77
2022/01/28 02:03:54;;;;;;;19.83;2.35;;;5.00;99.90;;;;;;5083835;28;20491;-76
2022/01/28 02:06:22;;;;;;;19.80;2.40;;;5.00;99.90;;;;;;5059347;28;20068;-76
2022/01/28 02:08:48;;;;;;;13.57;2.60;;;5.00;99.90;;;;;;5081009;28;20039;-77
2022/01/28 02:11:14;;;;;;;18.15;3.00;;;5.10;99.90;;;;;;5089037;28;20427;-77
2022/01/28 02:13:41;;;;;;;18.98;3.13;;;5.00;99.90;;;;;;5059620;28;20446;-77
2022/01/28 02:16:08;;;;;;;22.45;3.10;;;5.00;99.90;;;;;;5076044;28;20040;-77
2022/01/28 02:18:34;;;;;;;23.52;3.05;;;5.00;99.90;;;;;;5085964;28;20388;-77
2022/01/28 02:21:09;;;;;;;24.35;3.47;;;5.00;99.90;;;;;;5069819;28;20050;-77
2022/01/28 02:23:35;;;;;;;26.23;3.65;;;5.00;99.90;;;;;;5053942;28;20079;-76
2022/01/28 02:26:02;;;;;;;18.83;3.33;;;5.00;99.90;;;;;;5068516;28;20029;-77
2022/01/28 02:28:32;;;;;;;22.83;2.78;;;5.00;99.90;;;;;;5057055;28;20036;-76
2022/01/28 02:30:57;;;;;;;25.88;3.00;;;4.90;99.90;;;;;;5082330;28;20063;-76
2022/01/28 02:33:25;;;;;;;16.63;2.47;;;4.90;99.90;;;;;;5088355;28;20052;-77
2022/01/28 02:35:52;;;;;;;17.75;3.10;;;5.00;99.90;;;;;;5069731;28;20556;-76
2022/01/28 02:38:21;;;;;;;19.73;2.97;;;5.00;99.90;;;;;;5078118;28;20060;-77
2022/01/28 02:40:53;;;;;;;;;;;4.90;99.90;;;;;;5071649;28;20032;-77
2022/01/28 02:45:46;;;;;;;18.50;2.65;;;4.90;99.90;;;;;;5088238;28;20036;-77
2022/01/28 02:48:31;;;;;;;14.68;2.60;;;5.00;99.90;;;;;;5065260;28;20063;-77
2022/01/28 02:53:29;;;;;;;24.25;3.00;;;4.90;99.90;;;;;;5075247;28;20063;-77
2022/01/28 02:56:01;;;;;;;18.10;2.50;;;5.00;99.90;;;;;;5073380;28;20037;-77
2022/01/28 02:58:27;;;;;;;16.77;2.60;;;5.10;99.90;;;;;;5070810;28;20036;-77
2022/01/28 03:00:56;;;;;;;16.88;1.95;;;5.10;99.90;;;;;;5066536;28;20089;-77
2022/01/28 03:03:23;;;;;;;25.08;3.50;;;5.10;99.90;;;;;;5068167;28;20036;-77
2022/01/28 03:05:50;;;;;;;24.25;2.97;;;5.10;99.90;;;;;;5073318;28;20040;-76
2022/01/28 03:08:16;;;;;;;19.98;2.47;;;5.10;99.90;;;;;;5084365;28;20036;-76
2022/01/28 03:15:34;;;;;;;23.35;3.30;;;5.10;99.90;;;;;;5090371;28;20043;-77
2022/01/28 03:18:14;;;;;;;21.98;3.33;;;5.10;99.90;;;;;;5093446;28;20039;-76
2022/01/28 03:20:59;;;;;;;22.92;3.10;;;5.10;99.90;;;;;;5073017;28;20120;-77
2022/01/28 03:23:24;;;;;;;22.13;2.67;;;5.10;99.90;;;;;;5073613;28;20489;-76
2022/01/28 03:25:50;;;;;;;18.52;3.60;;;5.00;99.90;;;;;;5084653;28;20105;-76
2022/01/28 03:28:19;;;;;;;26.05;3.10;;;5.00;99.90;;;;;;5091894;28;20408;-77
2022/01/28 03:30:45;;;;;;;19.25;2.28;;;5.00;99.90;;;;;;5088529;28;20404;-77
2022/01/28 03:33:10;;;;;;;21.05;2.78;;;5.00;99.90;;;;;;5090132;28;20070;-77
2022/01/28 03:35:36;;;;;;;19.63;3.10;;;5.00;99.90;;;;;;5081064;28;20032;-77
2022/01/28 03:38:06;;;;;;;21.85;2.53;;;5.00;99.90;;;;;;5071979;28;20435;-76
2022/01/28 03:40:35;;;;;;;16.88;2.85;;;5.00;99.90;;;;;;5083273;28;20020;-76
2022/01/28 03:43:02;;;;;;;19.98;2.65;;;4.90;99.90;;;;;;5060838;28;20036;-76
2022/01/28 03:45:28;;;;;;;27.77;3.60;;;5.00;99.90;;;;;;5084581;28;20082;-76
2022/01/28 03:47:54;;;;;;;24.02;2.90;;;5.00;99.90;;;;;;5090832;28;20029;-76
2022/01/28 03:50:20;;;;;;;19.17;2.90;;;5.00;99.90;;;;;;5080203;28;20031;-76
2022/01/28 03:52:45;;;;;;;14.27;2.03;;;5.00;99.90;;;;;;5073510;28;20032;-77
2022/01/28 03:55:11;;;;;;;18.55;2.47;;;5.00;99.90;;;;;;5059567;28;20035;-77
2022/01/28 03:57:37;;;;;;;27.88;3.30;;;5.00;99.90;;;;;;5087484;28;20111;-77
2022/01/28 04:00:07;;;;;;;18.67;3.42;;;4.90;99.90;;;;;;5087696;28;20624;-77
2022/01/28 04:02:36;;;;;;;19.40;2.85;;;4.90;99.90;;;;;;5090873;28;20601;-77
2022/01/28 04:13:01;;;;;;;19.80;3.03;;;4.70;99.90;;;;;;5086199;28;20043;-77
2022/01/28 04:15:49;;;;;;;21.20;2.75;;;4.70;99.90;;;;;;5089813;28;20032;-76
2022/01/28 04:18:14;;;;;;;18.00;2.70;;;4.70;99.90;;;;;;5083229;28;20538;-76
2022/01/28 04:20:40;;;;;;;19.73;2.40;;;4.70;99.90;;;;;;5054342;28;20056;-76
2022/01/28 04:23:06;;;;;;;19.95;2.67;;;4.70;99.90;;;;;;5069692;28;20114;-77
2022/01/28 04:25:31;;;;;;;21.00;3.03;;;4.70;99.90;;;;;;5089436;28;20032;-77
2022/01/28 04:27:57;;;;;;;22.00;2.50;;;4.60;99.90;;;;;;5092371;28;20033;-77
2022/01/28 04:30:22;;;;;;;17.88;3.22;;;4.70;99.90;;;;;;5080485;28;20040;-77
2022/01/28 04:32:50;;;;;;;21.95;3.45;;;4.70;99.90;;;;;;5070191;28;20053;-77
2022/01/28 04:35:16;;;;;;;18.85;3.60;;;4.70;99.90;;;;;;5074046;28;20107;-77
2022/01/28 04:40:14;;;;;;;26.77;3.35;;;4.60;99.90;;;;;;5074965;28;20093;-77
2022/01/28 04:50:31;;;;;;;20.05;2.92;;;4.60;99.90;;;;;;5068576;28;20036;-76
2022/01/28 04:53:18;;;;;;;19.17;2.95;;;4.60;99.90;;;;;;5059905;28;20400;-76
2022/01/28 05:04:35;;;;;;;23.77;3.25;;;4.60;99.90;;;;;;5080901;28;20032;-77
2022/01/28 05:07:09;;;;;;;22.98;2.53;;;4.60;99.90;;;;;;5083978;28;20453;-77
2022/01/28 05:12:48;;;;;;;17.52;2.92;;;4.70;99.90;;;;;;5089142;28;20029;-77
2022/01/28 05:25:47;;;;;;;22.27;2.72;;;4.60;99.90;;;;;;5071581;28;20519;-76
2022/01/28 05:28:17;;;;;;;18.75;2.65;;;4.60;99.90;;;;;;5072978;28;20492;-76
2022/01/28 05:30:42;;;;;;;13.88;2.58;;;4.60;99.90;;;;;;5076984;28;20236;-76
2022/01/28 05:33:08;;;;;;;19.33;2.72;;;4.60;99.90;;;;;;5068612;28;20177;-77
2022/01/28 05:35:34;;;;;;;20.95;3.25;;;4.50;99.90;;;;;;5068115;28;20028;-76
2022/01/28 05:37:59;;;;;;;19.80;3.08;;;4.50;99.90;;;;;;5057763;28;20051;-76
2022/01/28 05:40:25;;;;;;;22.42;2.80;;;4.50;99.90;;;;;;5085541;28;20108;-76
2022/01/28 05:42:51;;;;;;;21.10;3.35;;;4.50;99.90;;;;;;5079295;28;20063;-76
2022/01/28 05:45:16;;;;;;;20.15;2.83;;;4.50;99.90;;;;;;5050271;28;20420;-77
2022/01/28 05:47:42;;;;;;;14.63;2.72;;;4.50;99.90;;;;;;5087251;28;20054;-76
2022/01/28 05:50:08;;;;;;;18.80;2.88;;;4.40;99.90;;;;;;5073476;28;20067;-76
2022/01/28 05:52:34;;;;;;;20.95;3.17;;;4.40;99.90;;;;;;5051191;28;20120;-76
2022/01/28 05:55:00;;;;;;;14.50;2.50;;;4.50;99.90;;;;;;5084907;28;20115;-77
2022/01/28 05:57:25;;;;;;;16.95;2.47;;;4.40;99.90;;;;;;5051976;28;20051;-76
2022/01/28 05:59:51;;;;;;;13.65;2.38;;;4.50;99.90;;;;;;5073105;28;20050;-76
2022/01/28 06:02:18;;;;;;;12.98;2.17;;;4.40;99.90;;;;;;5068986;28;20028;-76
2022/01/28 06:04:44;;;;;;;10.52;2.35;;;4.30;99.90;;;;;;5075090;28;20016;-76
2022/01/28 06:07:10;;;;;;;15.27;2.40;;;4.30;99.90;;;;;;5058428;28;20043;-77
2022/01/28 06:09:36;;;;;;;15.40;2.30;;;4.20;99.90;;;;;;5054224;28;20043;-76
2022/01/28 06:12:02;;;;;;;16.60;2.58;;;4.20;99.90;;;;;;5071849;28;20031;-76
2022/01/28 06:14:27;;;;;;;19.80;3.03;;;4.20;99.90;;;;;;5088839;28;20504;-77
2022/01/28 06:16:53;;;;;;;18.42;2.30;;;4.20;99.90;;;;;;5074179;28;20157;-77
2022/01/28 06:19:18;;;;;;;18.00;2.25;;;4.20;99.90;;;;;;5052095;28;20064;-76
2022/01/28 06:21:44;;;;;;;26.80;3.20;;;4.20;99.90;;;;;;5063715;28;20122;-77
2022/01/28 06:24:10;;;;;;;17.27;2.92;;;4.20;99.90;;;;;;5067330;28;20051;-76
2022/01/28 06:26:36;;;;;;;15.50;2.47;;;4.20;99.90;;;;;;5060481;28;20474;-76
2022/01/28 06:29:01;;;;;;;13.55;2.22;;;4.20;99.90;;;;;;5071630;28;20546;-76
2022/01/28 06:31:27;;;;;;;19.83;3.30;;;4.20;99.90;;;;;;5071541;28;20456;-76
2022/01/28 06:33:53;;;;;;;21.10;2.67;;;4.10;99.90;;;;;;5065435;28;20053;-77
2022/01/28 06:36:21;;;;;;;18.42;3.08;;;4.10;99.90;;;;;;5063660;28;20476;-78
2022/01/28 06:38:47;;;;;;;20.98;3.47;;;4.10;99.90;;;;;;5071367;28;20150;-77
2022/01/28 06:41:12;;;;;;;16.88;2.55;;;4.10;99.90;;;;;;5071224;28;20032;-78
2022/01/28 06:43:38;;;;;;;23.77;3.25;;;4.00;99.90;;;;;;5056135;28;20032;-78
2022/01/28 06:46:04;;;;;;;20.90;3.22;;;4.00;99.90;;;;;;5074941;28;20388;-78
2022/01/28 06:48:30;;;;;;;17.77;2.95;;;4.00;99.90;;;;;;5075313;28;20044;-78
2022/01/28 06:50:55;;;;;;;22.45;2.92;;;4.00;99.90;;;;;;5059212;28;20407;-78
2022/01/28 06:53:21;;;;;;;16.25;3.08;;;4.00;99.90;;;;;;5072559;28;20481;-78
2022/01/28 06:55:47;;;;;;;27.48;3.80;;;3.90;99.90;;;;;;5056296;28;20404;-78
2022/01/28 06:58:12;;;;;;;13.23;3.15;;;3.90;99.90;;;;;;5072807;28;20058;-77
2022/01/28 07:00:39;;;;;;;20.90;3.95;;;3.90;99.90;;;;;;5055268;28;20078;-76
2022/01/28 07:03:06;;;;;;;18.73;3.15;;;3.90;99.90;;;;;;5076057;28;20485;-76
2022/01/28 07:05:32;;;;;;;25.08;3.97;;;3.80;99.90;;;;;;5067541;28;20410;-77
2022/01/28 07:07:58;;;;;;;15.13;3.92;;;3.80;99.90;;;;;;5073684;28;20039;-78
2022/01/28 07:10:24;;;;;;;30.20;4.47;;;3.80;99.90;;;;;;5074231;28;20146;-78
2022/01/28 07:12:53;;;;;;;15.00;3.92;;;3.80;99.90;;;;;;5058204;28;20143;-77
2022/01/28 07:15:19;;;;;;;20.92;3.88;;;3.80;99.90;;;;;;5073783;28;20032;-78
2022/01/28 07:17:44;;;;;;;18.55;3.22;;;3.70;99.90;;;;;;5081309;28;20050;-77
2022/01/28 07:20:10;;;;;;;25.50;3.55;;;3.70;99.90;;;;;;5062418;28;20028;-78
2022/01/28 07:22:36;;;;;;;22.23;4.38;;;3.70;99.90;;;;;;5069396;28;20031;-78
2022/01/28 07:25:04;;;;;;;21.30;4.00;;;3.70;99.90;;;;;;5069443;28;20380;-78
2022/01/28 07:27:30;;;;;;;21.08;3.80;;;3.70;99.90;;;;;;5056023;28;20444;-78
2022/01/28 07:29:56;;;;;;;16.90;3.80;;;3.70;99.90;;;;;;5065865;28;20060;-77
2022/01/28 07:32:23;;;;;;;18.65;3.10;;;3.70;99.90;;;;;;5064054;28;20040;-78
2022/01/28 07:34:49;;;;;;;23.65;4.05;;;3.60;99.90;;;;;;5073924;28;20036;-78
2022/01/28 07:37:14;;;;;;;16.00;3.97;;;3.60;99.90;;;;;;5072808;28;20028;-77
2022/01/28 07:39:40;;;;;;;24.40;4.85;;;3.60;99.90;;;;;;5071508;28;20037;-78
2022/01/28 07:42:06;;;;;;;33.20;4.90;;;3.50;99.90;;;;;;5080890;28;20123;-78
2022/01/28 07:44:32;;;;;;;22.92;4.90;;;3.60;99.90;;;;;;5053865;28;20080;-78
2022/01/28 07:46:57;;;;;;;28.00;5.25;;;3.60;99.90;;;;;;5089074;28;20024;-78
2022/01/28 07:49:23;;;;;;;28.27;5.30;;;3.50;99.90;;;;;;5074352;28;20531;-78
2022/01/28 07:51:49;;;;;;;18.42;4.85;;;3.60;99.90;;;;;;5062723;28;20047;-78
2022/01/28 07:54:15;;;;;;;18.58;6.00;;;3.60;99.90;;;;;;5090941;28;20036;-78
2022/01/28 07:56:42;;;;;;;24.15;4.97;;;3.60;99.90;;;;;;5089970;28;20035;-77
2022/01/28 07:59:09;;;;;;;29.35;6.93;;;3.60;99.90;;;;;;5066665;28;20515;-78
2022/01/28 08:01:35;;;;;;;29.60;5.97;;;3.70;99.90;;;;;;5057491;28;20032;-78
2022/01/28 08:04:01;;;;;;;25.58;6.75;;;3.60;99.90;;;;;;5079068;28;20040;-77
2022/01/28 08:06:28;;;;;;;26.50;7.22;;;3.60;99.90;;;;;;5060353;28;20041;-78
2022/01/28 08:08:56;;;;;;;22.40;6.65;;;3.60;99.90;;;;;;5054346;28;20031;-78
2022/01/28 08:11:22;;;;;;;21.13;6.82;;;3.60;99.90;;;;;;5054241;28;20052;-78
2022/01/28 08:13:48;;;;;;;28.73;6.97;;;3.60;99.90;;;;;;5076985;28;20564;-78
2022/01/28 08:16:13;;;;;;;22.67;5.95;;;3.60;99.90;;;;;;5076512;28;20127;-78
2022/01/28 08:18:39;;;;;;;26.05;6.68;;;3.70;99.90;;;;;;5083802;28;20044;-78
2022/01/28 08:21:05;;;;;;;22.58;6.80;;;3.70;99.90;;;;;;5070571;28;20035;-78
2022/01/28 08:23:31;;;;;;;23.88;6.07;;;3.70;99.90;;;;;;5071322;28;20477;-78
2022/01/28 08:25:56;;;;;;;20.38;5.70;;;3.80;99.90;;;;;;5070167;28;20127;-78
2022/01/28 08:28:22;;;;;;;23.23;5.40;;;3.80;99.90;;;;;;5075264;28;20036;-78
2022/01/28 08:30:48;;;;;;;19.33;4.88;;;3.80;99.90;;;;;;5053368;28;20290;-78
2022/01/28 08:33:13;;;;;;;17.23;5.30;;;3.80;99.90;;;;;;5054306;28;20769;-78
2022/01/28 08:35:40;;;;;;;24.73;5.38;;;3.80;99.90;;;;;;5053280;28;20119;-78
2022/01/28 08:38:24;;;;;;;20.35;5.25;;;3.80;99.90;;;;;;5053298;28;20044;-78
2022/01/28 08:40:50;;;;;;;21.08;5.03;;;3.80;99.90;;;;;;5071258;28;20104;-78
2022/01/28 08:43:16;;;;;;;23.00;5.22;;;3.90;99.90;;;;;;5061340;28;20016;-78
2022/01/28 08:45:41;;;;;;;16.23;4.72;;;3.90;99.90;;;;;;5056859;28;20546;-78
2022/01/28 08:48:07;;;;;;;18.55;4.50;;;4.00;99.90;;;;;;5070604;28;20033;-78
2022/01/28 08:50:33;;;;;;;16.63;4.90;;;4.10;99.90;;;;;;5052304;28;20464;-78
2022/01/28 08:52:58;;;;;;;20.33;4.78;;;4.10;99.90;;;;;;5071789;28;20086;-78
2022/01/28 08:55:24;;;;;;;15.93;4.30;;;4.20;99.90;;;;;;5084926;28;20081;-77
2022/01/28 08:57:50;;;;;;;15.23;5.15;;;4.30;99.90;;;;;;5106766;28;20063;-77
2022/01/28 09:00:21;;;;;;;21.95;5.00;;;4.30;99.90;;;;;;5100840;28;20086;-78
2022/01/28 09:02:48;;;;;;;24.08;7.15;;;4.40;99.90;;;;;;5075775;28;20491;-78
2022/01/28 09:05:14;;;;;;;23.75;7.55;;;4.50;99.90;;;;;;5087853;28;20036;-78
2022/01/28 09:07:40;;;;;;;23.48;8.85;;;4.50;99.90;;;;;;5089468;28;20438;-77
2022/01/28 09:10:17;;;;;;;21.70;8.85;;;4.60;99.90;;;;;;5076737;28;20024;-77
2022/01/28 09:15:28;;;;;;;24.25;9.80;;;4.80;99.90;;;;;;5071065;28;20040;-78
2022/01/28 09:17:54;;;;;;;28.67;9.93;;;4.90;99.90;;;;;;5070483;28;20041;-78
2022/01/28 09:20:19;;;;;;;22.17;7.60;;;5.00;99.90;;;;;;5054150;28;20085;-78
2022/01/28 09:22:45;;;;;;;20.15;8.02;;;5.10;99.90;;;;;;5084323;28;20305;-78
2022/01/28 09:25:11;;;;;;;28.45;8.10;;;5.10;99.90;;;;;;5068295;28;20074;-79
2022/01/28 09:27:36;;;;;;;29.85;9.43;;;5.20;99.90;;;;;;5069423;28;20028;-79
2022/01/28 09:30:02;;;;;;;27.63;9.48;;;5.30;99.90;;;;;;5078829;28;20142;-78
2022/01/28 09:32:28;;;;;;;25.95;10.27;;;5.30;99.90;;;;;;5061357;28;20028;-79
2022/01/28 09:34:54;;;;;;;31.63;8.70;;;5.30;99.90;;;;;;5050212;28;20033;-78
2022/01/28 09:37:19;;;;;;;22.27;7.20;;;5.40;99.90;;;;;;5051482;28;20122;-79
2022/01/28 09:39:46;;;;;;;22.25;7.95;;;5.50;99.90;;;;;;5052160;28;20036;-79
2022/01/28 09:42:15;;;;;;;23.33;7.90;;;5.50;99.90;;;;;;5057517;28;20537;-78
2022/01/28 09:44:42;;;;;;;25.15;6.28;;;5.60;99.90;;;;;;5083642;28;20074;-78
2022/01/28 09:47:11;;;;;;;18.58;6.45;;;5.60;99.90;;;;;;5058573;28;20085;-79
2022/01/28 09:49:37;;;;;;;22.73;6.85;;;5.70;99.90;;;;;;5070135;28;20036;-79
2022/01/28 09:52:04;;;;;;;23.98;7.50;;;5.80;99.90;;;;;;5066958;28;20040;-79
2022/01/28 09:54:30;;;;;;;25.05;7.03;;;5.90;99.90;;;;;;5073334;28;20028;-78
2022/01/28 09:56:57;;;;;;;21.40;6.43;;;6.00;99.90;;;;;;5085309;28;20106;-79
2022/01/28 09:59:23;;;;;;;18.88;5.72;;;6.00;99.90;;;;;;5068877;28;20035;-78
2022/01/28 10:01:50;;;;;;;22.10;6.15;;;6.00;99.90;;;;;;5064387;28;20024;-79
2022/01/28 10:04:20;;;;;;;20.70;5.93;;;6.20;99.90;;;;;;5068928;28;20031;-79
2022/01/28 10:06:47;;;;;;;19.95;5.75;;;6.30;99.90;;;;;;5079461;28;20063;-78
2022/01/28 10:09:16;;;;;;;25.85;6.03;;;6.50;99.90;;;;;;5069893;28;20039;-79
2022/01/28 10:11:44;;;;;;;19.08;5.90;;;6.50;99.90;;;;;;5067702;28;20103;-80
2022/01/28 10:14:22;;;;;;;22.52;5.85;;;6.50;99.90;;;;;;5069023;28;20408;-80
2022/01/28 10:16:59;;;;;;;18.25;5.82;;;6.60;99.90;;;;;;5068106;28;20043;-80
2022/01/28 10:19:40;;;;;;;26.35;6.68;;;6.70;99.90;;;;;;5074519;28;20028;-81
2022/01/28 10:22:19;;;;;;;18.38;5.80;;;6.80;99.90;;;;;;5068731;28;20036;-80
2022/01/28 10:24:45;;;;;;;18.63;5.30;;;6.90;99.90;;;;;;5074655;28;20512;-81
2022/01/28 10:27:11;;;;;;;25.58;6.60;;;6.90;99.90;;;;;;5088625;28;20024;-80
2022/01/28 10:29:39;;;;;;;26.35;6.13;;;6.90;99.90;;;;;;5090416;28;20100;-80
2022/01/28 10:32:07;;;;;;;28.58;7.00;;;6.90;99.90;;;;;;5085730;28;20409;-80
2022/01/28 10:34:38;;;;;;;27.02;6.97;;;7.00;99.90;;;;;;5068272;28;20587;-80
2022/01/28 10:37:19;;;;;;;21.23;6.40;;;7.00;99.90;;;;;;5082930;28;20032;-80
2022/01/28 10:40:00;;;;;;;24.80;5.97;;;7.00;99.90;;;;;;5068102;28;20516;-80
2022/01/28 10:42:44;;;;;;;17.33;6.07;;;7.10;99.90;;;;;;5068676;28;20482;-80
2022/01/28 10:45:16;;;;;;;23.60;6.43;;;7.10;99.90;;;;;;5074642;28;20059;-81
2022/01/28 10:47:46;;;;;;;18.42;5.93;;;7.10;99.90;;;;;;5077005;28;20040;-81
2022/01/28 10:50:28;;;;;;;21.92;6.55;;;7.20;99.90;;;;;;5073009;28;20155;-81
2022/01/28 10:52:58;;;;;;;23.52;6.13;;;7.20;99.90;;;;;;5080329;28;20067;-80
2022/01/28 10:55:24;;;;;;;24.70;6.25;;;7.30;99.90;;;;;;5071916;28;20078;-80
2022/01/28 10:58:01;;;;;;;30.58;6.68;;;7.40;99.90;;;;;;5080463;28;20036;-79
2022/01/28 11:00:30;;;;;;;22.67;5.97;;;7.40;99.90;;;;;;5072622;28;20113;-79
2022/01/28 11:03:00;;;;;;;25.90;5.43;;;7.50;99.90;;;;;;5076992;28;20074;-80
2022/01/28 11:05:29;;;;;;;24.40;5.60;;;7.60;99.90;;;;;;5069346;28;20503;-82
2022/01/28 11:07:57;;;;;;;21.05;5.47;;;7.60;99.90;;;;;;5080608;28;20077;-79
2022/01/28 11:10:22;;;;;;;19.58;5.32;;;7.70;99.90;;;;;;5071423;28;20032;-86
2022/01/28 11:12:50;;;;;;;23.60;4.50;;;7.80;99.90;;;;;;5061150;28;20040;-85
2022/01/28 11:15:16;;;;;;;21.60;5.00;;;7.80;99.90;;;;;;5085501;28;20408;-81
2022/01/28 11:17:42;;;;;;;27.15;5.32;;;7.80;99.90;;;;;;5072561;28;20035;-83
2022/01/28 11:20:09;;;;;;;19.80;5.22;;;7.90;99.90;;;;;;5071550;28;20028;-82
2022/01/28 11:22:47;;;;;;;15.75;4.13;;;7.90;99.90;;;;;;5088738;28;20046;-81
2022/01/28 11:25:27;;;;;;;20.00;5.05;;;7.90;99.90;;;;;;5074108;28;20024;-80
2022/01/28 11:27:53;;;;;;;21.08;4.78;;;8.00;99.90;;;;;;5090184;28;20024;-81
2022/01/28 11:30:25;;;;;;;33.03;5.55;;;8.00;99.90;;;;;;5061012;28;20232;-80
2022/01/28 11:33:08;;;;;;;20.50;4.47;;;8.10;99.90;;;;;;5087375;28;20048;-81
2022/01/28 11:35:40;;;;;;;17.23;4.40;;;8.20;99.90;;;;;;5070194;28;20025;-80
2022/01/28 11:38:24;;;;;;;22.80;4.68;;;8.30;99.90;;;;;;5070042;28;20031;-81
2022/01/28 11:41:01;;;;;;;20.00;4.28;;;8.30;99.90;;;;;;5082627;28;20161;-80
2022/01/28 11:43:29;;;;;;;21.13;5.25;;;8.40;99.90;;;;;;5090152;28;20024;-81
2022/01/28 11:46:07;;;;;;;17.45;4.10;;;8.40;99.90;;;;;;5082773;28;20020;-81
2022/01/28 11:48:51;;;;;;;17.60;4.57;;;8.40;99.90;;;;;;5054496;28;20045;-81
2022/01/28 11:51:32;;;;;;;24.98;4.18;;;8.40;99.90;;;;;;5079905;28;20059;-80
2022/01/28 11:54:00;;;;;;;14.68;3.47;;;8.40;99.90;;;;;;5068513;28;20351;-80
2022/01/28 11:56:26;;;;;;;17.40;3.40;;;8.30;99.90;;;;;;5071222;28;20127;-80
2022/01/28 11:58:56;;;;;;;16.05;3.90;;;8.30;99.90;;;;;;5070656;28;20388;-80
2022/01/28 12:01:45;;;;;;;16.08;3.60;;;8.30;99.90;;;;;;5086416;28;20020;-80
2022/01/28 12:04:32;;;;;;;21.00;3.83;;;8.40;99.90;;;;;;5059711;28;20040;-81
2022/01/28 12:07:04;;;;;;;15.70;3.28;;;8.40;99.90;;;;;;5084001;28;20047;-80
2022/01/28 12:09:31;;;;;;;15.07;3.20;;;8.40;99.90;;;;;;5087666;28;20110;-80
2022/01/28 12:11:59;;;;;;;19.65;3.40;;;8.60;99.90;;;;;;5076422;28;20025;-85
2022/01/28 12:14:49;;;;;;;20.70;3.47;;;8.70;99.90;;;;;;5075004;28;20028;-81
2022/01/28 12:17:30;;;;;;;15.20;3.58;;;8.70;99.90;;;;;;5072923;28;20501;-81
2022/01/28 12:20:35;;;;;;;13.50;3.58;;;8.70;99.90;;;;;;5074265;28;20033;-80
2022/01/28 12:23:25;;;;;;;24.52;4.85;;;8.90;99.90;;;;;;5065700;28;20024;-81
2022/01/28 12:25:55;;;;;;;16.48;4.38;;;9.10;99.90;;;;;;5077938;28;20024;-81
2022/01/28 12:28:33;;;;;;;17.15;4.88;;;9.20;99.90;;;;;;5069928;28;20123;-82
